Terminal Aerodrome Forecast
Issued by NWS Nashville, TN

Home | Current Version | Previous Version | Text Only | Print | Product List | Glossary On
Versions: 1 2 3 4 5 6 7 8 9 10 11 12 13 14 15 16
000
FTUS44 KOHX 311700
TAFBNA
TAF
KBNA 311724Z 3118/0118 09007KT P6SM SCT050 BKN200
     FM010100 VRB02KT P6SM BKN200
     FM011100 00000KT 5SM BR SCT250
     FM011300 00000KT P6SM SCT250=

USA.gov is the U.S. government's official web portal to all federal, state and local government web resources and services.